Time;durP1;ratioP1;P1;durP2;ratioP2;P2;SDS_P1;SDS_P2;PMS_P1;PMS_P2;Temp;Humidity;BMP_temperature;BMP_pressure;BME280_temperature;BME280_humidity;BME280_pressure;Samples;Min_cycle;Max_cycle;Signal;HPM_P1;HPM_P2
2023/09/04 16:37:58;;;;;;;5.78;2.70;;;;;;;;;;5115127;27;20361;-81
2023/09/04 16:40:24;;;;;;;8.82;2.45;;;;;;;;;;5110140;28;20066;-91
2023/09/04 16:42:51;;;;;;;4.88;2.78;;;;;;;;;;5112486;28;20045;-80
2023/09/04 16:45:17;;;;;;;5.70;2.72;;;;;;;;;;5096677;28;20036;-79
2023/09/04 16:47:43;;;;;;;7.50;2.63;;;;;;;;;;5115153;28;20027;-78
2023/09/04 16:50:09;;;;;;;10.65;2.75;;;;;;;;;;5096633;28;20028;-84
2023/09/04 16:52:35;;;;;;;5.65;2.20;;;;;;;;;;5110574;28;20325;-80
2023/09/04 16:55:01;;;;;;;6.68;2.50;;;;;;;;;;5104068;28;20021;-78
2023/09/04 16:57:27;;;;;;;6.03;2.20;;;;;;;;;;5096937;28;20023;-79
2023/09/04 16:59:53;;;;;;;4.57;2.35;;;;;;;;;;5094458;28;20026;-80
2023/09/04 17:02:19;;;;;;;5.75;2.58;;;;;;;;;;5101408;28;20026;-80
2023/09/04 17:04:46;;;;;;;3.88;1.80;;;;;;;;;;5116122;27;20027;-79
2023/09/04 17:07:12;;;;;;;4.93;2.00;;;;;;;;;;5135155;27;20316;-79
2023/09/04 17:09:38;;;;;;;4.43;2.50;;;;;;;;;;5135018;28;20344;-79
2023/09/04 17:12:04;;;;;;;5.57;2.55;;;;;;;;;;5135101;28;20035;-79
2023/09/04 17:14:30;;;;;;;4.88;2.40;;;;;;;;;;5134853;27;20027;-78
2023/09/04 17:16:56;;;;;;;3.30;2.58;;;;;;;;;;5133701;28;20347;-79
2023/09/04 17:19:22;;;;;;;5.13;2.88;;;;;;;;;;5134991;27;20080;-78
2023/09/04 17:21:48;;;;;;;4.80;2.80;;;;;;;;;;5133629;27;20023;-79
2023/09/04 17:24:15;;;;;;;7.80;2.60;;;;;;;;;;5134831;27;20011;-79
2023/09/04 17:26:43;;;;;;;3.38;2.40;;;;;;;;;;5133124;27;20027;-78
2023/09/04 17:29:09;;;;;;;3.58;2.47;;;;;;;;;;5133527;27;20036;-79
2023/09/04 17:31:35;;;;;;;3.70;2.85;;;;;;;;;;5133274;28;20036;-78
2023/09/04 17:34:01;;;;;;;5.40;2.55;;;;;;;;;;5134564;28;20110;-79
2023/09/04 17:36:27;;;;;;;4.28;2.10;;;;;;;;;;5134006;28;20055;-78
2023/09/04 17:38:53;;;;;;;6.22;2.47;;;;;;;;;;5134537;27;20031;-79
2023/09/04 17:41:19;;;;;;;3.28;2.35;;;;;;;;;;5133217;27;20016;-78
2023/09/04 17:43:45;;;;;;;3.58;2.03;;;;;;;;;;5134359;28;20024;-79
2023/09/04 17:46:12;;;;;;;2.95;1.90;;;;;;;;;;5134298;27;20019;-78
2023/09/04 17:48:38;;;;;;;4.13;2.22;;;;;;;;;;5124312;27;20043;-78
2023/09/04 17:51:04;;;;;;;3.53;2.15;;;;;;;;;;5120310;28;20325;-79
2023/09/04 17:53:32;;;;;;;3.72;2.33;;;;;;;;;;5119329;28;20027;-79
2023/09/04 17:55:58;;;;;;;4.32;2.10;;;;;;;;;;5120296;28;20110;-78
2023/09/04 17:58:25;;;;;;;7.90;2.40;;;;;;;;;;5120546;28;20020;-79
2023/09/04 18:00:51;;;;;;;4.50;2.20;;;;;;;;;;5120456;28;20028;-79
2023/09/04 18:03:17;;;;;;;6.30;2.05;;;;;;;;;;5120302;28;20016;-79
2023/09/04 18:05:43;;;;;;;3.40;2.28;;;;;;;;;;5120126;28;20015;-79
2023/09/04 18:08:11;;;;;;;5.07;2.15;;;;;;;;;;5120115;28;20028;-78
2023/09/04 18:10:38;;;;;;;5.38;2.03;;;;;;;;;;5110510;28;20020;-78
2023/09/04 18:13:06;;;;;;;5.10;1.92;;;;;;;;;;5099627;28;20291;-78
2023/09/04 18:15:32;;;;;;;3.10;2.03;;;;;;;;;;5085228;28;20030;-78
2023/09/04 18:17:58;;;;;;;4.93;2.00;;;;;;;;;;5091407;28;20051;-79
2023/09/04 18:20:24;;;;;;;3.25;2.08;;;;;;;;;;5099457;28;20051;-78
2023/09/04 18:22:50;;;;;;;3.72;2.00;;;;;;;;;;5088041;28;20115;-78
2023/09/04 18:25:19;;;;;;;2.90;2.15;;;;;;;;;;5079102;28;20028;-80
2023/09/04 18:27:45;;;;;;;3.33;1.90;;;;;;;;;;5091490;28;20028;-79
2023/09/04 18:30:12;;;;;;;5.65;2.15;;;;;;;;;;5085342;28;20051;-92
2023/09/04 18:32:47;;;;;;;3.97;2.50;;;;;;;;;;5085258;28;20021;-94
2023/09/04 18:41:48;;;;;;;7.13;2.75;;;;;;;;;;5100480;28;20026;-94
2023/09/04 18:44:14;;;;;;;7.22;2.08;;;;;;;;;;5087672;28;20024;-93
2023/09/04 18:46:40;;;;;;;3.00;2.10;;;;;;;;;;5079162;28;20032;-94
2023/09/04 18:49:07;;;;;;;4.88;2.28;;;;;;;;;;5078899;28;20421;-94
2023/09/04 18:51:33;;;;;;;5.75;1.90;;;;;;;;;;5087068;28;20032;-93
2023/09/04 18:53:59;;;;;;;3.83;2.00;;;;;;;;;;5100596;28;20035;-93
2023/09/04 18:56:25;;;;;;;4.10;2.10;;;;;;;;;;5098020;28;20025;-94
2023/09/04 18:58:52;;;;;;;4.10;2.08;;;;;;;;;;5091652;28;20024;-93
2023/09/04 19:01:18;;;;;;;4.97;2.20;;;;;;;;;;5098776;28;20401;-93
2023/09/04 19:03:44;;;;;;;3.97;2.10;;;;;;;;;;5099289;28;20107;-94
2023/09/04 19:09:14;;;;;;;3.15;2.33;;;;;;;;;;5083997;28;20027;-94
2023/09/04 19:11:40;;;;;;;3.10;2.25;;;;;;;;;;5078997;28;20104;-94
2023/09/04 19:14:06;;;;;;;2.50;1.90;;;;;;;;;;5079969;28;20317;-86
2023/09/04 19:16:32;;;;;;;3.85;2.08;;;;;;;;;;5073121;28;20028;-88
2023/09/04 19:18:58;;;;;;;5.30;2.67;;;;;;;;;;5081257;28;20024;-88
2023/09/04 19:21:24;;;;;;;7.55;2.15;;;;;;;;;;5088373;28;20067;-89
2023/09/04 19:23:51;;;;;;;4.63;2.65;;;;;;;;;;5082600;28;20421;-88
2023/09/04 19:26:17;;;;;;;5.03;2.47;;;;;;;;;;5088324;28;20028;-88
2023/09/04 19:28:43;;;;;;;3.20;2.08;;;;;;;;;;5064871;28;20040;-87
2023/09/04 19:31:09;;;;;;;3.25;2.03;;;;;;;;;;5078847;28;20041;-87
2023/09/04 19:33:35;;;;;;;8.80;2.05;;;;;;;;;;5078559;28;20028;-88
2023/09/04 19:42:09;;;;;;;3.90;2.20;;;;;;;;;;5098798;28;20089;-88
2023/09/04 19:44:35;;;;;;;3.67;2.38;;;;;;;;;;5078920;28;20024;-87
2023/09/04 19:47:01;;;;;;;3.75;2.67;;;;;;;;;;5080254;28;20040;-87
2023/09/04 19:49:27;;;;;;;6.07;2.65;;;;;;;;;;5096079;28;20028;-87
2023/09/04 19:52:12;;;;;;;3.65;2.58;;;;;;;;;;5079015;28;20116;-88
2023/09/04 19:54:39;;;;;;;6.22;2.40;;;;;;;;;;5078204;28;20055;-90
2023/09/04 19:57:05;;;;;;;3.85;2.30;;;;;;;;;;5078095;28;20031;-90
2023/09/04 19:59:33;;;;;;;13.23;2.30;;;;;;;;;;5080305;28;20020;-90
2023/09/04 20:01:59;;;;;;;3.35;2.05;;;;;;;;;;5080823;28;20047;-90
2023/09/04 20:04:25;;;;;;;4.80;2.40;;;;;;;;;;5066809;28;20021;-90
2023/09/04 20:06:51;;;;;;;3.65;2.20;;;;;;;;;;5060201;28;20035;-90
2023/09/04 20:09:17;;;;;;;4.68;2.22;;;;;;;;;;5077808;28;20072;-90
2023/09/04 20:11:43;;;;;;;2.97;2.10;;;;;;;;;;5091844;28;20028;-90
2023/09/04 20:14:09;;;;;;;4.72;2.55;;;;;;;;;;5071012;28;20035;-90
2023/09/04 20:16:35;;;;;;;5.45;2.42;;;;;;;;;;5060369;28;20024;-90
2023/09/04 20:19:02;;;;;;;4.43;2.03;;;;;;;;;;5063983;28;20016;-89
2023/09/04 20:21:28;;;;;;;4.32;2.45;;;;;;;;;;5067346;28;20064;-90
2023/09/04 20:23:58;;;;;;;3.72;2.10;;;;;;;;;;5081000;28;20035;-92
2023/09/04 20:26:25;;;;;;;4.00;1.95;;;;;;;;;;5079847;28;20055;-92
2023/09/04 20:28:54;;;;;;;4.53;1.90;;;;;;;;;;5076935;28;20032;-91
2023/09/04 20:31:21;;;;;;;4.68;2.40;;;;;;;;;;5060402;28;20024;-92
2023/09/04 20:33:47;;;;;;;4.22;2.30;;;;;;;;;;5059806;28;20024;-92
2023/09/04 20:36:31;;;;;;;4.57;1.90;;;;;;;;;;5077341;28;20044;-91
2023/09/04 20:38:57;;;;;;;3.97;2.28;;;;;;;;;;5086343;28;20391;-91
2023/09/04 20:41:23;;;;;;;2.83;2.10;;;;;;;;;;5087928;28;20013;-93
2023/09/04 20:43:49;;;;;;;5.22;2.08;;;;;;;;;;5077920;28;20115;-92
2023/09/04 20:46:17;;;;;;;5.45;2.25;;;;;;;;;;5079636;28;20028;-91
2023/09/04 20:48:43;;;;;;;4.50;1.90;;;;;;;;;;5086043;28;20028;-91
2023/09/04 20:51:10;;;;;;;10.02;2.20;;;;;;;;;;5097565;28;20028;-92
2023/09/04 20:56:41;;;;;;;9.88;2.10;;;;;;;;;;5096001;28;20027;-93
2023/09/04 20:59:08;;;;;;;3.55;1.83;;;;;;;;;;5072812;28;20012;-95
2023/09/04 21:01:34;;;;;;;5.35;2.10;;;;;;;;;;5073012;28;20028;-91
2023/09/04 21:04:00;;;;;;;2.88;1.92;;;;;;;;;;5079653;28;20017;-93
2023/09/04 23:23:35;;;;;;;4.15;2.90;;;;;;;;;;5098969;28;20110;-95
2023/09/04 23:26:07;;;;;;;4.00;3.00;;;;;;;;;;5081114;28;20016;-95
2023/09/04 23:45:45;;;;;;;7.93;3.50;;;;;;;;;;4979175;28;20030;-94
2023/09/04 23:48:17;;;;;;;4.55;3.03;;;;;;;;;;4978306;28;20428;-93
2023/09/04 23:50:54;;;;;;;5.15;2.83;;;;;;;;;;4978664;28;20054;-94
2023/09/04 23:53:26;;;;;;;6.03;2.60;;;;;;;;;;4978367;28;20023;-93
2023/09/04 23:56:01;;;;;;;8.23;3.30;;;;;;;;;;4979209;28;20026;-93
2023/09/04 23:58:49;;;;;;;;;;;;;;;;;;;;;
